Time;durP1;ratioP1;P1;durP2;ratioP2;P2;SDS_P1;SDS_P2;PMS_P1;PMS_P2;Temp;Humidity;BMP_temperature;BMP_pressure;BME280_temperature;BME280_humidity;BME280_pressure;Samples;Min_cycle;Max_cycle;Signal;HPM_P1;HPM_P2
2022/10/08 00:01:09;;;;;;;6.68;1.77;;;12.70;99.90;;;;;;5035332;28;20601;-61
2022/10/08 00:03:37;;;;;;;11.73;2.25;;;12.70;99.90;;;;;;5052464;28;20040;-61
2022/10/08 00:06:11;;;;;;;9.18;2.38;;;12.70;99.90;;;;;;5052690;28;20083;-61
2022/10/08 00:08:39;;;;;;;8.15;2.30;;;12.70;99.90;;;;;;5052366;28;20179;-61
2022/10/08 00:11:07;;;;;;;10.48;2.20;;;12.70;99.90;;;;;;5053754;28;20131;-61
2022/10/08 00:13:40;;;;;;;10.60;2.60;;;12.70;99.90;;;;;;5052919;28;20044;-61
2022/10/08 00:16:24;;;;;;;8.80;2.70;;;12.70;99.90;;;;;;5051674;28;20087;-61
2022/10/08 00:18:52;;;;;;;10.35;3.08;;;12.70;99.90;;;;;;5053562;28;20044;-61
2022/10/08 00:21:21;;;;;;;10.25;3.20;;;12.70;99.90;;;;;;5052407;28;20049;-61
2022/10/08 00:23:49;;;;;;;11.65;2.83;;;12.70;99.90;;;;;;5051743;28;20037;-61
2022/10/08 00:26:16;;;;;;;10.15;3.08;;;12.70;99.90;;;;;;5052263;28;20124;-61
2022/10/08 00:28:44;;;;;;;12.88;3.33;;;12.70;99.90;;;;;;5035793;28;20097;-61
2022/10/08 00:31:15;;;;;;;7.18;2.38;;;12.70;99.90;;;;;;5051896;28;20048;-61
2022/10/08 00:33:41;;;;;;;13.43;2.97;;;12.70;99.90;;;;;;5052456;28;20037;-61
2022/10/08 00:36:11;;;;;;;11.15;2.47;;;12.70;99.90;;;;;;5051583;28;20041;-61
2022/10/08 00:38:38;;;;;;;10.73;2.85;;;12.80;99.90;;;;;;5053565;28;20044;-61
2022/10/08 00:41:05;;;;;;;7.93;2.58;;;12.70;99.90;;;;;;5051839;28;20065;-61
2022/10/08 00:43:47;;;;;;;9.25;3.20;;;12.70;99.90;;;;;;5051327;28;20662;-61
2022/10/08 00:46:32;;;;;;;7.88;2.38;;;12.70;99.90;;;;;;5053196;28;20041;-61
2022/10/08 00:49:05;;;;;;;9.02;2.10;;;12.70;99.90;;;;;;5051601;28;20040;-61
2022/10/08 00:51:33;;;;;;;10.52;2.60;;;12.70;99.90;;;;;;5052104;28;20390;-61
2022/10/08 00:54:03;;;;;;;7.97;2.38;;;12.60;99.90;;;;;;5051519;28;20061;-61
2022/10/08 00:56:34;;;;;;;8.40;2.25;;;12.70;99.90;;;;;;5051660;28;20048;-61
2022/10/08 00:59:01;;;;;;;10.93;2.42;;;12.60;99.90;;;;;;5050959;28;20060;-61
2022/10/08 01:01:28;;;;;;;10.35;2.85;;;12.60;99.90;;;;;;5052785;28;20051;-61
2022/10/08 01:03:54;;;;;;;8.55;2.75;;;12.60;99.90;;;;;;5051279;28;20041;-61
2022/10/08 01:06:35;;;;;;;9.95;2.80;;;12.60;99.90;;;;;;5052071;28;20036;-61
2022/10/08 01:09:16;;;;;;;7.88;2.25;;;12.50;99.90;;;;;;5034555;28;20565;-61
2022/10/08 01:11:48;;;;;;;11.98;2.45;;;12.50;99.90;;;;;;5052295;28;20041;-61
2022/10/08 01:14:47;;;;;;;10.90;2.50;;;12.50;99.90;;;;;;5052513;28;20056;-61
2022/10/08 01:17:29;;;;;;;9.95;2.42;;;12.40;99.90;;;;;;5035120;28;20060;-61
2022/10/08 01:19:55;;;;;;;7.40;1.92;;;12.40;99.90;;;;;;5050414;28;20041;-61
2022/10/08 01:22:51;;;;;;;12.25;2.85;;;12.40;99.90;;;;;;5051151;28;20072;-61
2022/10/08 01:25:44;;;;;;;8.05;2.22;;;12.30;99.90;;;;;;5050733;28;20386;-61
2022/10/08 01:28:26;;;;;;;7.20;2.13;;;12.20;99.90;;;;;;5051246;28;20072;-61
2022/10/08 01:31:03;;;;;;;8.10;2.03;;;12.20;99.90;;;;;;5052002;28;20033;-61
2022/10/08 01:33:44;;;;;;;11.00;2.17;;;12.20;99.90;;;;;;5050501;28;20045;-61
2022/10/08 01:36:12;;;;;;;11.38;2.33;;;12.10;99.90;;;;;;5034717;28;20044;-61
2022/10/08 01:38:42;;;;;;;10.88;2.70;;;12.00;99.90;;;;;;5051500;28;20393;-61
2022/10/08 01:41:10;;;;;;;9.15;2.38;;;12.00;99.90;;;;;;5051330;28;20044;-61
2022/10/08 01:43:42;;;;;;;6.43;2.25;;;12.00;99.90;;;;;;5051117;28;20433;-61
2022/10/08 01:46:16;;;;;;;6.57;2.50;;;11.90;99.90;;;;;;5050816;28;20041;-61
2022/10/08 01:48:43;;;;;;;7.63;2.42;;;11.90;99.90;;;;;;5051005;28;20083;-61
2022/10/08 01:51:19;;;;;;;9.93;2.60;;;11.80;99.90;;;;;;5051974;28;20037;-61
2022/10/08 01:53:48;;;;;;;9.02;2.25;;;11.80;99.90;;;;;;5051002;28;20041;-61
2022/10/08 01:56:20;;;;;;;8.77;2.55;;;11.70;99.90;;;;;;5034178;28;20048;-61
2022/10/08 01:58:54;;;;;;;7.50;1.98;;;11.70;99.90;;;;;;5050904;28;20045;-61
2022/10/08 02:01:33;;;;;;;9.95;2.40;;;11.70;99.90;;;;;;5050072;28;20555;-61
2022/10/08 02:06:49;;;;;;;8.02;2.42;;;11.60;99.90;;;;;;5052381;28;20059;-61
2022/10/08 02:09:15;;;;;;;10.35;2.42;;;11.50;99.90;;;;;;5051111;28;20045;-61
2022/10/08 02:11:41;;;;;;;11.40;3.05;;;11.50;99.90;;;;;;5050976;28;20037;-61
2022/10/08 02:14:07;;;;;;;8.35;2.83;;;11.40;99.90;;;;;;5050686;28;20076;-61
2022/10/08 02:16:34;;;;;;;7.65;2.55;;;11.40;99.90;;;;;;5050850;28;20425;-61
2022/10/08 02:19:35;;;;;;;6.95;2.38;;;11.40;99.90;;;;;;5050488;28;20041;-61
2022/10/08 02:22:04;;;;;;;11.27;2.38;;;11.40;99.90;;;;;;5034452;28;20501;-61
2022/10/08 02:25:01;;;;;;;9.32;3.13;;;11.40;99.90;;;;;;5051782;28;20056;-61
2022/10/08 02:27:43;;;;;;;8.18;2.80;;;11.30;99.90;;;;;;5047374;28;20053;-61
2022/10/08 02:30:11;;;;;;;8.68;2.90;;;11.30;99.90;;;;;;5050734;28;20041;-61
2022/10/08 02:32:53;;;;;;;13.38;3.20;;;11.30;99.90;;;;;;5050706;28;20041;-61
2022/10/08 02:35:30;;;;;;;10.45;2.20;;;11.30;99.90;;;;;;5050851;28;20048;-61
2022/10/08 02:38:05;;;;;;;10.30;3.03;;;11.20;99.90;;;;;;5054419;28;20073;-61
2022/10/08 02:40:32;;;;;;;8.13;2.58;;;11.20;99.90;;;;;;5054381;28;20049;-61
2022/10/08 02:43:05;;;;;;;12.70;3.28;;;11.20;99.90;;;;;;5054633;28;20037;-61
2022/10/08 02:45:51;;;;;;;11.63;3.30;;;11.10;99.90;;;;;;5055451;28;20036;-61
2022/10/08 02:48:44;;;;;;;12.38;3.28;;;11.10;99.90;;;;;;5054071;28;20482;-61
2022/10/08 02:51:14;;;;;;;11.95;3.20;;;11.10;99.90;;;;;;5043141;28;20049;-61
2022/10/08 02:53:41;;;;;;;8.20;2.75;;;11.00;99.90;;;;;;5037689;28;20072;-61
2022/10/08 02:56:53;;;;;;;8.68;2.75;;;11.00;99.90;;;;;;5053906;28;20097;-61
2022/10/08 02:59:20;;;;;;;9.77;2.80;;;11.00;99.90;;;;;;5047371;28;20045;-61
2022/10/08 03:02:01;;;;;;;11.23;3.47;;;11.00;99.90;;;;;;5053784;28;20080;-61
2022/10/08 03:04:54;;;;;;;14.10;3.75;;;11.00;99.90;;;;;;5054189;28;20041;-61
2022/10/08 03:07:21;;;;;;;11.30;2.88;;;11.00;99.90;;;;;;5053893;28;20100;-61
2022/10/08 03:09:50;;;;;;;9.80;3.35;;;11.10;99.90;;;;;;5053727;28;20051;-61
2022/10/08 03:12:17;;;;;;;12.93;3.25;;;11.10;99.90;;;;;;5054077;28;20035;-61
2022/10/08 03:14:46;;;;;;;8.88;2.95;;;11.10;99.90;;;;;;5055208;28;20037;-61
2022/10/08 03:17:15;;;;;;;13.43;2.97;;;11.10;99.90;;;;;;5054716;28;20033;-61
2022/10/08 03:19:40;;;;;;;9.52;3.33;;;11.10;99.90;;;;;;5052888;28;20051;-61
2022/10/08 03:22:12;;;;;;;11.65;2.92;;;11.10;99.90;;;;;;5053512;28;20048;-61
2022/10/08 03:24:38;;;;;;;12.38;3.28;;;11.10;99.90;;;;;;5055022;28;20037;-61
2022/10/08 03:27:04;;;;;;;11.70;3.08;;;11.10;99.90;;;;;;5052652;28;20048;-61
2022/10/08 03:29:29;;;;;;;17.98;3.75;;;11.10;99.90;;;;;;5054358;28;20068;-61
2022/10/08 03:31:55;;;;;;;8.95;2.97;;;11.10;99.90;;;;;;5053709;28;20037;-61
2022/10/08 03:34:23;;;;;;;8.77;2.88;;;11.10;99.90;;;;;;5036568;28;20130;-61
2022/10/08 03:36:48;;;;;;;10.25;3.20;;;11.10;99.90;;;;;;5053092;28;20041;-61
2022/10/08 03:39:14;;;;;;;11.13;3.30;;;11.10;99.90;;;;;;5052365;28;20072;-61
2022/10/08 03:41:40;;;;;;;12.95;3.40;;;11.10;99.90;;;;;;5054530;28;20400;-61
2022/10/08 03:44:11;;;;;;;9.57;2.90;;;11.10;99.90;;;;;;5053150;28;20049;-61
2022/10/08 03:46:37;;;;;;;12.68;3.95;;;11.10;99.90;;;;;;5052013;28;20436;-61
2022/10/08 03:49:02;;;;;;;13.38;3.08;;;11.00;99.90;;;;;;5052319;28;20041;-61
2022/10/08 03:51:28;;;;;;;7.45;2.55;;;11.00;99.90;;;;;;5053202;28;20091;-60
2022/10/08 03:53:54;;;;;;;11.48;3.58;;;10.90;99.90;;;;;;5053224;28;20037;-61
2022/10/08 03:56:23;;;;;;;13.90;3.28;;;10.80;99.90;;;;;;5052777;28;20045;-61
2022/10/08 03:58:54;;;;;;;11.68;3.13;;;10.80;99.90;;;;;;5052569;28;20055;-61
2022/10/08 04:01:20;;;;;;;13.30;3.67;;;10.80;99.90;;;;;;5053333;28;20048;-61
2022/10/08 04:03:46;;;;;;;11.13;3.00;;;10.80;99.90;;;;;;5053974;28;20049;-61
2022/10/08 04:06:12;;;;;;;10.68;3.15;;;10.70;99.90;;;;;;5054150;28;20098;-61
2022/10/08 04:08:37;;;;;;;6.93;2.67;;;10.70;99.90;;;;;;5052089;28;20051;-61
2022/10/08 04:11:05;;;;;;;11.40;3.22;;;10.60;99.90;;;;;;5052507;28;20037;-61
2022/10/08 04:13:31;;;;;;;12.57;3.35;;;10.60;99.90;;;;;;5053693;28;20079;-61
2022/10/08 04:16:02;;;;;;;17.23;3.50;;;10.60;99.90;;;;;;5051596;28;20068;-61
2022/10/08 04:18:28;;;;;;;15.18;3.50;;;10.60;99.90;;;;;;5053729;28;20039;-61
2022/10/08 04:21:03;;;;;;;12.00;3.03;;;10.50;99.90;;;;;;5053567;28;20045;-61
2022/10/08 04:23:31;;;;;;;13.82;3.72;;;10.50;99.90;;;;;;5053573;28;20044;-61
2022/10/08 04:25:57;;;;;;;10.35;3.15;;;10.50;99.90;;;;;;5052432;28;20037;-61
2022/10/08 04:28:23;;;;;;;12.00;4.18;;;10.50;99.90;;;;;;5051767;28;20043;-61
2022/10/08 04:30:55;;;;;;;9.00;3.25;;;10.40;99.90;;;;;;5052225;28;20119;-61
2022/10/08 04:33:20;;;;;;;9.55;2.83;;;10.40;99.90;;;;;;5053504;28;20044;-61
2022/10/08 04:35:46;;;;;;;12.18;3.25;;;10.40;99.90;;;;;;5051255;28;20037;-61
2022/10/08 04:38:11;;;;;;;13.35;3.78;;;10.30;99.90;;;;;;5052096;28;20037;-61
2022/10/08 04:40:37;;;;;;;10.40;3.00;;;10.30;99.90;;;;;;5035520;28;20049;-61
2022/10/08 04:43:03;;;;;;;13.30;2.78;;;10.30;99.90;;;;;;5051233;28;20041;-61
2022/10/08 04:45:28;;;;;;;14.02;3.10;;;10.30;99.90;;;;;;5052057;28;20392;-61
2022/10/08 04:47:54;;;;;;;11.75;2.92;;;10.30;99.90;;;;;;5052134;28;20438;-61
2022/10/08 04:50:19;;;;;;;10.65;2.70;;;10.30;99.90;;;;;;5050894;28;20128;-61
2022/10/08 04:52:45;;;;;;;14.60;3.65;;;10.20;99.90;;;;;;5051665;28;20041;-60
2022/10/08 04:55:11;;;;;;;12.25;3.55;;;10.20;99.90;;;;;;5051614;28;20055;-61
2022/10/08 04:57:36;;;;;;;8.82;3.10;;;10.20;99.90;;;;;;5051299;28;20490;-61
2022/10/08 05:00:04;;;;;;;12.77;3.50;;;10.20;99.90;;;;;;5052265;28;20545;-61
2022/10/08 05:02:31;;;;;;;10.75;3.10;;;10.10;99.90;;;;;;5051455;28;20072;-61
2022/10/08 05:04:56;;;;;;;13.50;4.05;;;10.10;99.90;;;;;;5050990;28;20090;-61
2022/10/08 05:07:23;;;;;;;11.88;3.10;;;10.10;99.90;;;;;;5052747;28;20040;-61
2022/10/08 05:09:49;;;;;;;11.05;3.05;;;10.00;99.90;;;;;;5051146;28;20497;-61
2022/10/08 05:12:14;;;;;;;13.98;3.83;;;10.00;99.90;;;;;;5033980;28;20037;-61
2022/10/08 05:14:40;;;;;;;12.23;3.88;;;10.00;99.90;;;;;;5052824;28;20033;-61
2022/10/08 05:17:06;;;;;;;12.80;3.13;;;10.00;99.90;;;;;;5052537;28;20115;-60
2022/10/08 05:19:32;;;;;;;12.27;3.63;;;10.00;99.90;;;;;;5050344;28;20045;-61
2022/10/08 05:21:57;;;;;;;11.82;3.15;;;10.00;99.90;;;;;;5052491;28;20036;-61
2022/10/08 05:24:23;;;;;;;11.38;2.65;;;10.00;99.90;;;;;;5050172;28;20045;-61
2022/10/08 05:26:51;;;;;;;9.15;3.40;;;9.90;99.90;;;;;;5052514;28;20037;-61
2022/10/08 05:29:18;;;;;;;9.25;3.15;;;10.00;99.90;;;;;;5052355;28;20048;-61
2022/10/08 05:31:43;;;;;;;11.20;4.05;;;9.90;99.90;;;;;;5050487;28;20508;-61
2022/10/08 05:34:13;;;;;;;16.70;3.65;;;9.90;99.90;;;;;;5052510;28;20085;-60
2022/10/08 05:36:39;;;;;;;15.13;3.38;;;9.90;99.90;;;;;;5051298;28;20033;-61
2022/10/08 05:39:06;;;;;;;18.45;3.25;;;9.90;99.90;;;;;;5050049;28;20082;-60
2022/10/08 05:41:36;;;;;;;13.43;3.17;;;9.80;99.90;;;;;;5050955;28;20516;-60
2022/10/08 05:44:02;;;;;;;13.90;3.42;;;9.80;99.90;;;;;;5050204;28;20393;-61
2022/10/08 05:46:30;;;;;;;14.02;3.47;;;9.80;99.90;;;;;;5050335;28;20041;-61
2022/10/08 05:48:57;;;;;;;11.75;3.67;;;9.70;99.90;;;;;;5051863;28;20045;-61
2022/10/08 05:51:23;;;;;;;15.10;3.40;;;9.80;99.90;;;;;;5064020;28;20044;-61
2022/10/08 05:53:51;;;;;;;9.35;3.00;;;9.70;99.90;;;;;;5083064;28;20045;-61
2022/10/08 05:56:19;;;;;;;10.82;3.17;;;9.70;99.90;;;;;;5052164;28;20045;-60
2022/10/08 05:58:45;;;;;;;12.95;3.10;;;9.70;99.90;;;;;;5046646;28;20154;-60
2022/10/08 06:01:42;;;;;;;12.77;2.97;;;9.70;99.90;;;;;;5023861;28;20078;-62
2022/10/08 06:04:10;;;;;;;10.82;3.50;;;9.70;99.90;;;;;;5042713;28;20136;-61
2022/10/08 06:06:37;;;;;;;12.70;3.17;;;9.80;99.90;;;;;;5037237;28;20051;-61
2022/10/08 06:09:04;;;;;;;8.68;2.20;;;9.90;99.90;;;;;;5047908;28;20131;-61
2022/10/08 06:11:33;;;;;;;11.60;2.80;;;10.00;99.90;;;;;;5051458;28;20045;-61
2022/10/08 06:14:00;;;;;;;8.63;2.65;;;10.20;99.90;;;;;;5051414;28;20049;-62
2022/10/08 06:16:27;;;;;;;9.57;2.83;;;10.30;99.90;;;;;;5035939;28;20048;-61
2022/10/08 06:18:54;;;;;;;13.57;2.88;;;10.40;99.90;;;;;;5052259;28;20386;-61
2022/10/08 06:21:22;;;;;;;16.88;2.58;;;10.40;99.90;;;;;;5050873;28;20041;-61
2022/10/08 06:23:53;;;;;;;11.18;2.42;;;10.50;99.90;;;;;;5035345;28;20055;-62
2022/10/08 06:26:21;;;;;;;9.25;2.35;;;10.50;99.90;;;;;;5051008;28;20041;-61
2022/10/08 06:28:48;;;;;;;8.82;2.20;;;10.50;99.90;;;;;;5050573;28;20047;-61
2022/10/08 06:31:15;;;;;;;10.70;1.80;;;10.60;99.90;;;;;;5052459;28;20036;-62
2022/10/08 06:33:40;;;;;;;11.30;2.42;;;10.60;99.90;;;;;;5083614;28;20037;-61
2022/10/08 06:36:15;;;;;;;11.93;2.85;;;10.60;99.90;;;;;;5081820;28;20037;-62
2022/10/08 06:38:41;;;;;;;9.75;2.70;;;10.60;99.90;;;;;;5051673;28;20037;-61
2022/10/08 06:41:07;;;;;;;9.57;2.60;;;10.60;99.90;;;;;;5057307;28;20039;-62
2022/10/08 06:43:33;;;;;;;6.47;1.67;;;10.60;99.90;;;;;;5050798;28;20421;-62
2022/10/08 06:46:03;;;;;;;7.43;1.92;;;10.70;99.90;;;;;;5051604;28;20102;-61
2022/10/08 06:48:29;;;;;;;6.20;1.67;;;10.80;99.90;;;;;;5053065;28;20389;-61
2022/10/08 06:50:59;;;;;;;7.60;1.50;;;10.80;99.90;;;;;;5057943;28;20059;-61
2022/10/08 06:53:26;;;;;;;7.43;1.55;;;10.80;99.90;;;;;;5067900;28;20068;-61
2022/10/08 06:56:02;;;;;;;4.97;1.30;;;10.80;99.90;;;;;;5055613;28;20048;-61
2022/10/08 06:58:28;;;;;;;8.30;1.50;;;10.80;99.90;;;;;;5055376;28;20037;-61
2022/10/08 07:01:08;;;;;;;3.72;1.00;;;10.80;99.90;;;;;;5085541;28;20043;-61
2022/10/08 07:03:34;;;;;;;6.78;1.73;;;10.70;99.90;;;;;;5059750;28;20052;-61
2022/10/08 07:06:05;;;;;;;5.70;2.15;;;10.70;99.90;;;;;;5054467;28;20502;-61
2022/10/08 07:08:31;;;;;;;8.18;1.90;;;10.60;99.90;;;;;;5034759;28;20854;-61
2022/10/08 07:11:09;;;;;;;5.35;1.88;;;10.60;99.90;;;;;;5058447;28;20032;-60
2022/10/08 07:13:35;;;;;;;4.57;1.10;;;10.50;99.90;;;;;;5039514;28;20052;-61
2022/10/08 07:16:07;;;;;;;6.68;1.67;;;10.50;99.90;;;;;;5055371;28;20036;-61
2022/10/08 07:18:33;;;;;;;8.65;1.92;;;10.50;99.90;;;;;;5056333;28;20048;-61
2022/10/08 07:21:00;;;;;;;5.70;2.42;;;10.50;99.90;;;;;;5049536;28;20199;-61
2022/10/08 07:23:26;;;;;;;7.38;1.98;;;10.50;99.90;;;;;;5052777;28;20509;-61
2022/10/08 07:25:56;;;;;;;5.65;2.25;;;10.50;99.90;;;;;;5060005;28;20049;-61
2022/10/08 07:28:24;;;;;;;8.95;3.13;;;10.50;99.90;;;;;;5072563;28;20068;-61
2022/10/08 07:30:49;;;;;;;6.10;1.92;;;10.60;99.90;;;;;;5060294;28;20130;-61
2022/10/08 07:33:15;;;;;;;6.38;1.75;;;10.60;99.90;;;;;;5051419;28;20080;-61
2022/10/08 07:35:41;;;;;;;4.35;1.60;;;10.70;99.90;;;;;;5064341;28;20389;-61
2022/10/08 07:38:06;;;;;;;6.45;1.38;;;10.80;99.90;;;;;;5067545;28;20045;-61
2022/10/08 07:40:34;;;;;;;7.72;1.52;;;10.80;99.90;;;;;;5060774;28;20466;-61
2022/10/08 07:43:01;;;;;;;9.10;1.75;;;10.90;99.90;;;;;;5052041;28;20049;-61
2022/10/08 07:45:27;;;;;;;7.45;2.55;;;11.00;99.90;;;;;;5051360;28;20508;-60
2022/10/08 07:47:53;;;;;;;7.60;2.00;;;11.10;99.90;;;;;;5057196;28;20440;-62
2022/10/08 07:50:18;;;;;;;4.10;1.33;;;11.30;99.90;;;;;;5084706;28;20045;-62
2022/10/08 07:52:44;;;;;;;10.25;2.55;;;11.40;99.90;;;;;;5052146;28;20041;-62
2022/10/08 07:55:10;;;;;;;8.63;1.50;;;11.50;99.90;;;;;;5052898;28;20053;-63
2022/10/08 07:57:35;;;;;;;11.10;2.42;;;11.60;99.90;;;;;;5053721;28;20118;-62
2022/10/08 08:00:01;;;;;;;10.40;2.05;;;11.70;99.90;;;;;;5050150;28;20135;-62
2022/10/08 08:02:27;;;;;;;9.90;2.25;;;11.80;99.90;;;;;;5032796;28;20050;-63
2022/10/08 08:04:52;;;;;;;9.38;2.63;;;11.90;99.90;;;;;;5055448;28;20107;-62
2022/10/08 08:07:18;;;;;;;10.18;2.05;;;11.90;99.90;;;;;;5050955;28;20036;-62
2022/10/08 08:09:44;;;;;;;7.13;2.15;;;12.00;99.90;;;;;;5082945;28;20438;-62
2022/10/08 08:12:10;;;;;;;7.75;2.10;;;12.10;99.90;;;;;;5049681;28;20451;-62
2022/10/08 08:14:36;;;;;;;5.72;1.50;;;12.20;99.90;;;;;;5049358;28;20119;-62
2022/10/08 08:17:01;;;;;;;7.15;1.55;;;12.20;99.90;;;;;;5058160;28;20116;-65
2022/10/08 08:19:27;;;;;;;6.05;2.08;;;12.40;99.90;;;;;;5068535;28;20139;-62
2022/10/08 08:21:53;;;;;;;11.15;2.53;;;12.50;99.90;;;;;;5051632;28;20044;-62
2022/10/08 08:24:18;;;;;;;10.48;2.22;;;12.50;99.90;;;;;;5053834;28;20124;-62
2022/10/08 08:26:44;;;;;;;10.75;1.52;;;12.50;99.90;;;;;;5055339;28;20043;-62
2022/10/08 08:29:16;;;;;;;7.90;1.88;;;12.60;99.90;;;;;;5056286;28;20071;-63
2022/10/08 08:31:46;;;;;;;10.68;2.28;;;12.70;99.90;;;;;;5033407;28;20107;-61
2022/10/08 08:34:15;;;;;;;8.77;1.83;;;12.80;99.90;;;;;;5049113;28;20047;-61
2022/10/08 08:36:43;;;;;;;6.32;1.92;;;13.00;99.90;;;;;;5050571;28;20119;-62
2022/10/08 08:39:16;;;;;;;12.52;2.20;;;13.10;99.90;;;;;;5050104;28;20053;-62
2022/10/08 08:42:16;;;;;;;5.82;1.52;;;13.20;99.90;;;;;;5067709;28;20048;-62
2022/10/08 08:44:45;;;;;;;10.13;1.67;;;13.20;99.90;;;;;;5063889;28;20045;-62
2022/10/08 08:47:35;;;;;;;8.02;1.67;;;13.10;99.90;;;;;;5083334;28;20485;-62
2022/10/08 08:50:03;;;;;;;8.70;1.83;;;13.10;99.90;;;;;;5048689;28;20131;-62
2022/10/08 08:52:33;;;;;;;9.55;1.90;;;13.00;99.90;;;;;;5049186;28;20045;-61
2022/10/08 08:55:00;;;;;;;8.77;2.28;;;13.00;99.90;;;;;;5058880;28;20060;-62
2022/10/08 08:57:55;;;;;;;10.55;2.35;;;13.10;99.90;;;;;;5060380;28;20124;-61
2022/10/08 09:00:24;;;;;;;12.18;2.47;;;13.20;99.90;;;;;;5047857;28;20037;-61
2022/10/08 09:03:23;;;;;;;7.53;2.35;;;13.20;99.90;;;;;;5084034;28;20041;-62
2022/10/08 09:05:55;;;;;;;9.98;2.35;;;13.30;99.90;;;;;;5051885;28;20125;-61
2022/10/08 09:08:33;;;;;;;8.43;1.98;;;13.40;99.90;;;;;;5052682;28;20048;-62
2022/10/08 09:11:01;;;;;;;9.45;2.50;;;13.50;99.90;;;;;;5052299;28;20045;-62
2022/10/08 09:13:42;;;;;;;5.72;1.50;;;13.50;99.90;;;;;;5062881;28;20107;-62
2022/10/08 09:16:14;;;;;;;6.80;2.25;;;13.60;99.90;;;;;;5047620;28;20040;-62
2022/10/08 09:18:44;;;;;;;12.65;2.60;;;13.60;99.90;;;;;;5071035;28;20040;-62
2022/10/08 09:21:10;;;;;;;12.85;2.42;;;13.70;99.90;;;;;;5056230;28;20076;-61
2022/10/08 09:23:35;;;;;;;7.35;1.98;;;13.70;99.90;;;;;;5083170;28;20076;-62
2022/10/08 09:26:13;;;;;;;11.05;1.98;;;13.80;99.90;;;;;;5083541;28;20040;-62
2022/10/08 09:28:49;;;;;;;7.65;2.08;;;13.90;99.90;;;;;;5040171;28;20039;-62
2022/10/08 09:31:39;;;;;;;13.95;3.10;;;13.90;99.90;;;;;;5051411;28;20508;-61
2022/10/08 09:34:26;;;;;;;8.82;2.05;;;13.90;99.90;;;;;;5038267;28;20041;-62
2022/10/08 09:37:13;;;;;;;11.00;2.05;;;13.90;99.90;;;;;;5040747;28;20043;-61
2022/10/08 09:39:59;;;;;;;8.60;1.77;;;13.90;99.90;;;;;;5053431;28;20098;-61
2022/10/08 09:42:24;;;;;;;9.30;1.80;;;13.90;99.90;;;;;;5052683;28;20529;-61
2022/10/08 09:44:57;;;;;;;6.53;1.67;;;14.00;99.90;;;;;;5083595;28;20148;-63
2022/10/08 09:47:25;;;;;;;12.38;2.78;;;14.10;99.90;;;;;;5050780;28;20501;-62
2022/10/08 09:50:18;;;;;;;12.80;2.05;;;14.20;99.90;;;;;;5049256;28;20125;-61
2022/10/08 09:52:46;;;;;;;8.93;1.90;;;14.20;99.90;;;;;;5042446;28;20036;-61
2022/10/08 09:55:19;;;;;;;11.70;2.55;;;14.00;99.90;;;;;;5059056;28;20053;-61
2022/10/08 09:57:48;;;;;;;9.38;1.50;;;13.90;99.90;;;;;;5047950;28;20322;-62
2022/10/08 10:00:36;;;;;;;8.23;2.22;;;13.90;99.90;;;;;;5049923;28;20037;-62
2022/10/08 10:03:04;;;;;;;8.65;2.20;;;14.00;99.90;;;;;;5048996;28;20482;-61
2022/10/08 10:05:33;;;;;;;7.97;2.15;;;14.10;99.90;;;;;;5050203;28;20076;-61
2022/10/08 10:07:58;;;;;;;5.43;1.45;;;14.20;99.90;;;;;;5049781;28;20128;-61
2022/10/08 10:10:36;;;;;;;10.05;2.10;;;14.20;99.90;;;;;;5083625;28;20076;-61
2022/10/08 10:13:20;;;;;;;6.78;1.35;;;14.20;99.90;;;;;;5083711;28;20505;-61
2022/10/08 10:15:48;;;;;;;7.90;1.85;;;14.20;99.90;;;;;;5083819;28;20051;-61
2022/10/08 10:18:21;;;;;;;6.35;1.67;;;14.20;99.90;;;;;;5050791;28;20051;-63
2022/10/08 10:20:59;;;;;;;7.47;1.45;;;14.30;99.90;;;;;;5050501;28;20111;-63
2022/10/08 10:23:34;;;;;;;11.32;1.98;;;14.30;99.90;;;;;;5052003;28;20379;-63
2022/10/08 10:26:15;;;;;;;7.28;1.90;;;14.40;99.90;;;;;;5083617;28;20037;-63
2022/10/08 10:29:11;;;;;;;9.68;1.52;;;14.60;99.90;;;;;;5084101;28;20052;-63
2022/10/08 10:31:42;;;;;;;10.73;2.08;;;14.60;99.90;;;;;;5052412;28;20041;-63
2022/10/08 10:34:25;;;;;;;8.57;1.90;;;14.70;99.90;;;;;;5082969;28;20047;-63
2022/10/08 10:36:56;;;;;;;7.85;1.92;;;14.80;99.90;;;;;;5050326;28;20041;-63
2022/10/08 10:39:37;;;;;;;8.60;2.15;;;14.70;99.90;;;;;;5058171;28;20428;-63
2022/10/08 10:42:14;;;;;;;10.55;2.92;;;14.70;99.90;;;;;;5030712;28;20182;-63
2022/10/08 10:44:55;;;;;;;7.53;1.63;;;14.80;99.90;;;;;;5032295;28;20390;-63
2022/10/08 10:47:28;;;;;;;10.45;2.75;;;14.70;99.90;;;;;;5066714;28;20044;-63
2022/10/08 10:49:54;;;;;;;8.63;2.00;;;14.50;99.90;;;;;;5082783;28;20125;-64
2022/10/08 10:52:33;;;;;;;9.07;2.05;;;14.40;99.90;;;;;;5051638;28;20041;-64
2022/10/08 10:55:29;;;;;;;7.75;2.30;;;14.40;99.90;;;;;;5050694;28;20502;-63
2022/10/08 10:57:56;;;;;;;;;;;14.40;99.90;;;;;;5087494;28;20033;-63
2022/10/08 11:00:41;;;;;;;6.80;2.15;;;14.40;99.90;;;;;;5034387;28;19920;-63
2022/10/08 11:03:36;;;;;;;7.28;2.00;;;14.50;99.90;;;;;;5052131;28;20509;-63
2022/10/08 11:06:22;;;;;;;8.15;2.10;;;14.60;99.90;;;;;;5050046;28;20047;-63
2022/10/08 11:09:18;;;;;;;9.93;2.72;;;14.80;99.90;;;;;;5085216;28;20080;-62
2022/10/08 11:11:52;;;;;;;12.18;2.10;;;14.90;99.90;;;;;;5052673;28;20055;-62
2022/10/08 11:14:49;;;;;;;8.65;2.47;;;14.90;99.90;;;;;;5085204;28;20044;-62
2022/10/08 11:17:22;;;;;;;11.23;1.95;;;14.90;99.90;;;;;;5034927;28;20072;-61
2022/10/08 11:20:02;;;;;;;12.32;2.08;;;14.70;99.90;;;;;;5052368;28;20155;-62
2022/10/08 11:22:55;;;;;;;5.65;1.60;;;14.60;99.90;;;;;;5084725;28;20053;-62
2022/10/08 11:25:46;;;;;;;7.47;1.85;;;14.50;99.90;;;;;;5067463;28;20072;-62
2022/10/08 11:28:18;;;;;;;8.77;2.10;;;14.50;99.90;;;;;;5084140;28;20045;-62
2022/10/08 11:31:14;;;;;;;7.47;2.60;;;14.30;99.90;;;;;;5052048;28;20076;-61
2022/10/08 11:33:40;;;;;;;10.82;2.30;;;14.20;99.90;;;;;;5051607;28;20040;-62
2022/10/08 11:36:33;;;;;;;18.92;3.95;;;14.10;99.90;;;;;;5065133;28;20408;-62
2022/10/08 11:39:12;;;;;;;11.10;2.95;;;14.10;99.90;;;;;;5070105;28;20423;-62
2022/10/08 11:41:53;;;;;;;9.00;2.00;;;14.20;99.90;;;;;;5071019;28;20045;-63
2022/10/08 11:44:20;;;;;;;11.55;1.95;;;14.30;99.90;;;;;;5070059;28;20052;-63
2022/10/08 11:46:46;;;;;;;10.48;2.35;;;14.50;99.90;;;;;;5069893;28;20614;-63
2022/10/08 11:49:11;;;;;;;13.75;2.30;;;14.60;99.90;;;;;;5030924;28;20128;-63
2022/10/08 11:51:59;;;;;;;10.73;2.67;;;14.80;99.90;;;;;;5034857;28;20139;-63
2022/10/08 11:54:33;;;;;;;12.48;2.63;;;14.80;99.90;;;;;;5049884;28;20059;-63
2022/10/08 11:57:20;;;;;;;11.45;2.05;;;15.00;99.90;;;;;;5066676;28;20051;-62
2022/10/08 11:59:56;;;;;;;11.73;2.55;;;15.10;99.90;;;;;;5083465;28;20106;-63
2022/10/08 12:02:29;;;;;;;7.55;1.85;;;15.10;99.90;;;;;;5084278;28;20519;-63
2022/10/08 12:04:58;;;;;;;14.68;2.28;;;15.00;99.90;;;;;;5084070;28;20049;-62
2022/10/08 12:07:32;;;;;;;11.52;2.20;;;15.00;99.90;;;;;;5081539;28;20041;-63
2022/10/08 12:10:06;;;;;;;6.28;2.10;;;15.00;99.90;;;;;;5067791;28;20082;-62
2022/10/08 12:12:44;;;;;;;;;;;15.20;99.90;;;;;;5069467;28;20810;-63
2022/10/08 12:15:22;;;;;;;7.63;1.83;;;15.20;99.90;;;;;;5072034;28;19924;-62
2022/10/08 12:17:56;;;;;;;8.55;1.90;;;15.30;99.90;;;;;;5070373;28;20561;-62
2022/10/08 12:20:26;;;;;;;8.13;2.20;;;15.10;99.90;;;;;;5069752;28;20786;-62
2022/10/08 12:23:05;;;;;;;6.82;1.90;;;14.60;99.90;;;;;;5058221;28;20061;-64
2022/10/08 12:26:01;;;;;;;5.07;1.10;;;14.10;99.90;;;;;;5051729;28;20592;-64
2022/10/08 12:28:27;;;;;;;8.73;1.48;;;13.70;99.90;;;;;;5082694;28;20132;-64
2022/10/08 12:31:14;;;;;;;5.68;1.30;;;13.30;99.90;;;;;;5083300;28;20128;-63
2022/10/08 12:33:41;;;;;;;4.18;1.20;;;13.00;99.90;;;;;;5045640;28;20049;-64
2022/10/08 12:36:19;;;;;;;4.05;1.13;;;12.70;99.90;;;;;;5083148;28;20045;-64
2022/10/08 12:38:58;;;;;;;2.97;0.93;;;12.50;99.90;;;;;;5083232;28;20045;-64
2022/10/08 12:41:31;;;;;;;4.80;1.25;;;12.40;99.90;;;;;;5082491;28;20045;-64
2022/10/08 12:44:16;;;;;;;6.55;1.42;;;12.30;99.90;;;;;;5049605;28;20049;-63
2022/10/08 12:47:01;;;;;;;4.18;1.30;;;12.20;99.90;;;;;;5085848;28;20381;-63
2022/10/08 12:49:40;;;;;;;5.13;1.52;;;12.20;99.90;;;;;;5086046;28;20045;-63
2022/10/08 12:52:25;;;;;;;7.82;1.58;;;12.20;99.90;;;;;;5053746;28;20041;-63
2022/10/08 12:54:56;;;;;;;6.07;1.38;;;12.20;99.90;;;;;;5035429;28;20049;-63
2022/10/08 12:57:35;;;;;;;6.07;1.25;;;12.20;99.90;;;;;;5085361;28;20062;-62
2022/10/08 13:00:21;;;;;;;7.63;1.65;;;12.20;99.90;;;;;;5085247;28;20060;-62
2022/10/08 13:03:06;;;;;;;5.10;1.65;;;12.30;99.90;;;;;;5034520;28;20508;-62
2022/10/08 13:05:37;;;;;;;6.13;1.48;;;12.40;99.90;;;;;;5085476;28;20048;-62
2022/10/08 13:08:38;;;;;;;7.20;1.67;;;12.60;99.90;;;;;;5085287;28;20347;-62
2022/10/08 13:11:12;;;;;;;8.50;1.83;;;12.90;99.90;;;;;;5085060;28;20053;-61
2022/10/08 13:13:38;;;;;;;7.07;1.70;;;13.10;99.90;;;;;;5052939;28;20037;-62